Aérodrome :
LOGIN :

S'inscrire | Disclaimer

   EN    FR    IT 

 










Légende :    VFR   VFR Marginal   IFR   IFR Intensif   IFR Très Intensif
Visi : 
Plafond : 
>= 8 km
>= 3000ft
5 à 8 km
1000 à 3000 ft
1500m à 5 km
500 à 1000 ft
800 à 1500m
200 à 500 ft
< 800m
< 200 ft
Symboles :   Orages  Brouillard  Fortes neiges  Fortes précipitations  Vent > 20 kt
SIGMETs :   Divers  Orages  Givrage  Turbulence  Onde Orograph.  Cendres Volcan.






- Altitude de l'aérodrome : 72 ft
- Code IATA : UDE


EHVK - Volkel Airbase

DERNIER METAR :
  • 091846Z AUTO 22006KT 7000 BR BKN016 M00/M02 Q1007 WHT

METARs EXPIRÉS :
  • 091825Z AUTO 26004KT 9000 BR OVC016 00/M02 Q1007 WHT
  • 091755Z AUTO VRB02KT 9999 OVC015 00/M02 Q1006 WHT
  • 091725Z AUTO VRB02KT 9999 BKN015 M01/M02 Q1006 WHT
  • 091700Z AUTO VRB02KT 9999 BKN015 00/M02 Q1006 WHT
  • 091655Z AUTO VRB02KT 9999 BKN014 00/M02 Q1006 GRN
  • 091640Z AUTO 19004KT 130V220 9999 OVC014 01/M02 Q1006 GRN
  • 091611Z AUTO 21003KT 9999 OVC014 01/M01 Q1006 GRN

TAF TAF EHVK
Valide du 09 à 18h jusqu'au 10 à 06h UTC


091709Z 0918/1006 19004KT 9999 FEW012 BKN015
PROB40
TEMPO 0918/0922 4000 BR BKN008
BECMG 0920/0923 2500 BR
PROB40
TEMPO 0923/1006 0600 FZFG FEW008



MET'MAP, la Météo Aéronautique d'un coup d'oeil ! - Copyright ORBIFLY Décembre 2007 - Disclaimer

ORBIFLY MET'MAP TEAM :

Programmation & Développement : Alexandra Zaïnal
Sur une idée originale de : Baudouin d'Aumeries
Soutien technique & logistique : Manuel Goepfert
Assistance : Marc-Olivier Méhu




SOURCES & CREDITS :

   NOAA